Time;durP1;ratioP1;P1;durP2;ratioP2;P2;SDS_P1;SDS_P2;PMS_P1;PMS_P2;Temp;Humidity;BMP_temperature;BMP_pressure;BME280_temperature;BME280_humidity;BME280_pressure;Samples;Min_cycle;Max_cycle;Signal;HPM_P1;HPM_P2
2023/01/09 00:01:43;;;;;;;2.50;1.90;;;;;;;16.77;32.32;100395.75;5063824;28;20067;-93
2023/01/09 00:04:09;;;;;;;3.50;2.38;;;;;;;16.82;32.37;100401.28;5063195;28;20048;-93
2023/01/09 00:06:35;;;;;;;2.95;2.13;;;;;;;16.81;32.38;100394.22;5063367;28;20024;-94
2023/01/09 00:09:00;;;;;;;3.22;2.60;;;;;;;16.86;32.23;100395.22;5097026;28;20027;-94
2023/01/09 00:11:26;;;;;;;3.30;2.50;;;;;;;16.81;32.28;100383.44;5063773;28;20032;-94
2023/01/09 00:13:55;;;;;;;3.65;2.35;;;;;;;16.78;32.02;100386.59;5063330;28;20031;-93
2023/01/09 00:16:23;;;;;;;3.00;2.30;;;;;;;16.66;32.26;100378.44;5079674;28;20032;-92
2023/01/09 00:18:52;;;;;;;3.20;2.50;;;;;;;16.77;32.40;100395.75;5062586;28;20059;-93
2023/01/09 00:21:17;;;;;;;2.83;2.20;;;;;;;16.76;32.09;100394.91;5062724;28;20051;-95
2023/01/09 00:23:46;;;;;;;3.45;2.55;;;;;;;16.74;32.19;100390.81;5063937;28;20387;-94
2023/01/09 00:26:17;;;;;;;3.60;2.70;;;;;;;16.77;32.25;100390.34;5079692;28;20020;-94
2023/01/09 00:28:45;;;;;;;3.90;2.55;;;;;;;16.68;32.36;100385.25;5081474;28;20467;-95
2023/01/09 00:31:11;;;;;;;3.33;2.53;;;;;;;16.76;32.38;100389.50;5063771;28;20046;-93
2023/01/09 00:34:04;;;;;;;3.70;2.55;;;;;;;16.79;32.50;100380.13;5062553;28;20495;-93
2023/01/09 00:36:32;;;;;;;3.15;2.40;;;;;;;16.67;32.43;100370.13;5063915;28;20085;-92
2023/01/09 00:39:00;;;;;;;4.07;2.85;;;;;;;16.62;32.33;100367.28;5041849;28;20025;-93
2023/01/09 00:41:59;;;;;;;3.53;2.70;;;;;;;16.78;32.48;100386.59;5059497;28;20028;-94
2023/01/09 00:44:33;;;;;;;3.05;2.38;;;;;;;16.65;32.43;100372.22;5057843;28;20043;-95
2023/01/09 00:47:06;;;;;;;3.20;2.58;;;;;;;16.65;32.41;100361.44;5042761;28;20099;-92
2023/01/09 00:49:35;;;;;;;3.70;2.97;;;;;;;16.69;32.16;100370.72;5041687;28;20032;-93
2023/01/09 00:52:07;;;;;;;3.63;2.95;;;;;;;16.61;32.09;100346.75;5042196;28;20032;-92
2023/01/09 00:54:35;;;;;;;3.42;2.55;;;;;;;16.56;32.21;100334.97;5059196;28;20056;-93
2023/01/09 00:57:04;;;;;;;3.42;2.50;;;;;;;16.70;32.28;100361.56;5041987;28;20029;-91
2023/01/09 00:59:30;;;;;;;4.05;2.55;;;;;;;16.64;32.39;100338.22;5058380;28;20052;-91
2023/01/09 01:01:55;;;;;;;3.20;2.67;;;;;;;16.70;32.41;100358.88;5041562;28;20020;-92
2023/01/09 01:09:49;;;;;;;5.22;2.72;;;;;;;16.60;32.02;100331.59;5061994;28;20039;-92
2023/01/09 01:12:15;;;;;;;3.60;2.80;;;;;;;16.69;32.24;100335.66;5058322;28;20024;-92
2023/01/09 01:14:40;;;;;;;3.20;2.60;;;;;;;16.68;32.29;100336.69;5041778;28;20024;-91
2023/01/09 01:17:06;;;;;;;5.32;2.90;;;;;;;16.69;32.28;100345.59;5057936;28;20115;-92
2023/01/09 01:19:33;;;;;;;5.22;2.78;;;;;;;16.63;32.15;100336.56;5057534;28;20067;-91
2023/01/09 01:22:01;;;;;;;5.03;3.13;;;;;;;16.59;32.19;100318.34;5041295;28;20029;-91
2023/01/09 01:24:27;;;;;;;3.80;2.95;;;;;;;16.55;32.34;100317.16;5057933;28;20059;-92
2023/01/09 01:26:53;;;;;;;4.45;3.00;;;;;;;16.50;32.31;100323.25;5058269;28;20077;-91
2023/01/09 01:29:18;;;;;;;4.03;2.75;;;;;;;16.53;32.25;100315.50;5058661;28;20054;-93
2023/01/09 01:31:45;;;;;;;4.53;3.40;;;;;;;16.52;32.36;100315.72;5041314;28;20026;-91
2023/01/09 01:34:10;;;;;;;4.32;2.78;;;;;;;16.63;32.32;100333.03;5041590;28;20021;-92
2023/01/09 01:36:36;;;;;;;4.18;2.92;;;;;;;16.64;32.12;100332.81;5040880;28;20016;-92
2023/01/09 01:39:02;;;;;;;5.30;3.40;;;;;;;16.60;32.32;100320.81;5041189;28;20040;-94
2023/01/09 01:41:30;;;;;;;5.00;3.38;;;;;;;16.65;32.23;100337.13;5042262;28;20024;-94
2023/01/09 01:44:00;;;;;;;5.25;3.13;;;;;;;16.56;32.28;100322.34;5042332;28;20084;-94
2023/01/09 01:46:27;;;;;;;4.82;3.20;;;;;;;16.59;32.25;100324.59;5059037;28;20035;-93
2023/01/09 01:49:03;;;;;;;4.13;2.92;;;;;;;16.62;32.29;100324.09;5058383;28;20032;-94
2023/01/09 01:51:30;;;;;;;5.18;3.10;;;;;;;16.60;32.47;100323.50;5057778;28;20033;-93
2023/01/09 01:53:57;;;;;;;5.18;2.92;;;;;;;16.56;32.20;100329.59;5042055;28;20127;-93
2023/01/09 01:56:41;;;;;;;4.75;2.92;;;;;;;16.59;32.46;100324.59;5042877;28;20008;-93
2023/01/09 01:59:25;;;;;;;4.67;3.17;;;;;;;16.59;32.08;100312.94;5042369;28;20048;-93
2023/01/09 02:01:58;;;;;;;4.97;3.38;;;;;;;16.51;32.06;100311.41;5043138;28;20269;-93
2023/01/09 02:04:24;;;;;;;4.18;2.83;;;;;;;16.55;32.38;100307.19;5040514;28;20483;-93
2023/01/09 02:06:51;;;;;;;4.57;2.95;;;;;;;16.53;32.29;100290.41;5039280;28;20070;-93
2023/01/09 02:09:21;;;;;;;4.85;3.20;;;;;;;16.48;32.31;100296.50;5056202;28;20024;-93
2023/01/09 02:11:55;;;;;;;4.18;2.80;;;;;;;16.44;32.21;100270.22;5040483;28;20025;-94
2023/01/09 02:14:22;;;;;;;4.60;3.22;;;;;;;16.47;32.37;100273.28;5040267;28;20031;-91
2023/01/09 02:16:56;;;;;;;4.45;3.22;;;;;;;16.56;32.25;100294.50;5038625;28;20169;-92
2023/01/09 02:19:32;;;;;;;5.45;3.35;;;;;;;16.60;32.03;100296.53;5055134;28;20419;-92
2023/01/09 02:22:32;;;;;;;4.50;3.35;;;;;;;16.55;32.31;100295.59;5055307;28;20417;-91
2023/01/09 02:25:34;;;;;;;5.95;3.53;;;;;;;16.53;32.32;100301.22;5057558;28;20518;-92
2023/01/09 02:28:10;;;;;;;4.85;3.30;;;;;;;16.49;32.16;100298.16;5071819;28;20112;-92
2023/01/09 02:30:56;;;;;;;4.30;3.10;;;;;;;16.48;32.11;100290.28;5055246;28;20059;-91
2023/01/09 02:33:36;;;;;;;4.53;3.50;;;;;;;16.56;32.30;100289.97;5054863;28;20028;-90
2023/01/09 02:36:16;;;;;;;4.25;3.13;;;;;;;16.50;32.26;100309.75;5055634;28;20104;-92
2023/01/09 02:38:53;;;;;;;5.10;3.50;;;;;;;16.51;32.21;100306.00;5073173;28;20107;-91
2023/01/09 02:41:34;;;;;;;4.75;3.45;;;;;;;16.51;32.33;100297.91;5057543;28;20028;-92
2023/01/09 02:44:22;;;;;;;5.35;3.00;;;;;;;16.52;32.41;100296.84;5075194;28;20027;-92
2023/01/09 02:47:14;;;;;;;5.55;3.50;;;;;;;16.37;32.44;100273.00;5057541;28;20075;-92
2023/01/09 02:49:39;;;;;;;5.50;3.15;;;;;;;16.32;32.39;100268.28;5059173;28;20047;-92
2023/01/09 02:52:39;;;;;;;5.47;3.50;;;;;;;16.51;32.33;100282.56;5040652;28;20017;-92
2023/01/09 02:55:12;;;;;;;4.55;3.13;;;;;;;16.43;32.14;100268.56;5073863;28;20025;-93
2023/01/09 02:58:00;;;;;;;5.03;3.22;;;;;;;16.48;32.22;100280.31;5040972;28;20111;-92
2023/01/09 03:00:35;;;;;;;4.43;3.33;;;;;;;16.44;32.31;100257.56;5073436;28;20376;-88
2023/01/09 03:03:09;;;;;;;4.50;3.22;;;;;;;16.44;32.33;100267.53;5073535;28;20409;-90
2023/01/09 03:05:52;;;;;;;3.95;3.00;;;;;;;16.49;32.33;100259.56;5056483;28;20021;-89
2023/01/09 03:08:27;;;;;;;4.25;3.00;;;;;;;16.44;32.19;100245.94;5057457;28;20040;-89
2023/01/09 03:11:03;;;;;;;4.20;3.20;;;;;;;16.49;32.35;100243.38;5057551;28;20067;-90
2023/01/09 03:13:56;;;;;;;4.30;2.95;;;;;;;16.47;32.22;100226.59;5056629;28;20035;-89
2023/01/09 03:16:28;;;;;;;5.13;3.47;;;;;;;16.32;32.34;100211.66;5071382;28;20033;-91
2023/01/09 03:18:53;;;;;;;4.25;3.20;;;;;;;16.36;32.25;100211.22;5040405;28;20067;-93
2023/01/09 03:21:19;;;;;;;4.00;3.00;;;;;;;16.33;32.21;100202.53;5056574;28;20499;-93
2023/01/09 03:23:50;;;;;;;4.80;3.30;;;;;;;16.39;32.35;100206.16;5039925;28;20028;-91
2023/01/09 03:26:16;;;;;;;4.40;3.40;;;;;;;16.38;32.20;100214.50;5041370;28;20036;-94
2023/01/09 03:28:42;;;;;;;4.47;3.25;;;;;;;16.30;32.16;100194.09;5044402;28;20012;-93
2023/01/09 03:31:07;;;;;;;5.75;3.50;;;;;;;16.36;32.25;100206.63;5060358;28;20637;-90
2023/01/09 03:33:33;;;;;;;5.03;3.45;;;;;;;16.40;32.19;100215.06;5060801;28;20129;-90
2023/01/09 03:35:59;;;;;;;4.28;3.28;;;;;;;16.41;32.30;100205.94;5060507;28;20577;-90
2023/01/09 03:38:25;;;;;;;4.18;3.08;;;;;;;16.45;32.05;100212.50;5060588;28;20027;-91
2023/01/09 03:40:53;;;;;;;4.72;3.33;;;;;;;16.38;32.36;100215.31;5077058;28;20077;-92
2023/01/09 03:43:18;;;;;;;4.03;2.80;;;;;;;16.32;32.28;100203.56;5044415;28;20032;-92
2023/01/09 03:45:44;;;;;;;5.07;3.45;;;;;;;16.31;32.08;100210.00;5061141;28;20111;-92
2023/01/09 03:48:10;;;;;;;5.47;3.45;;;;;;;16.39;32.25;100216.16;5061252;28;20025;-94
2023/01/09 03:50:35;;;;;;;4.80;3.03;;;;;;;16.31;32.22;100203.78;5044226;28;20578;-93
2023/01/09 03:53:01;;;;;;;4.25;3.25;;;;;;;16.37;31.97;100229.84;5043653;28;20028;-93
2023/01/09 03:55:27;;;;;;;5.07;3.70;;;;;;;16.25;32.09;100210.13;5042670;28;20505;-93
2023/01/09 03:57:52;;;;;;;4.35;2.90;;;;;;;16.36;32.13;100227.38;5044404;28;20035;-94
2023/01/09 04:00:19;;;;;;;5.32;3.60;;;;;;;16.24;32.28;100216.56;5043675;28;20134;-93
2023/01/09 04:02:45;;;;;;;5.13;2.90;;;;;;;16.24;32.16;100219.25;5044150;28;20391;-92
2023/01/09 04:05:11;;;;;;;3.38;2.65;;;;;;;16.30;32.20;100232.66;5043600;28;20081;-93
2023/01/09 04:07:39;;;;;;;4.40;3.10;;;;;;;16.33;32.15;100228.66;5059737;28;20025;-92
2023/01/09 04:10:05;;;;;;;4.32;3.10;;;;;;;16.39;32.26;100232.31;5059710;28;20063;-94
2023/01/09 04:12:31;;;;;;;4.35;3.00;;;;;;;16.31;32.24;100230.75;5058919;28;20025;-90
2023/01/09 04:14:57;;;;;;;4.30;2.92;;;;;;;16.30;32.37;100219.16;5076611;28;20021;-92
2023/01/09 04:17:22;;;;;;;3.80;2.78;;;;;;;16.28;32.17;100220.44;5058692;28;20464;-92
2023/01/09 04:19:49;;;;;;;3.95;3.05;;;;;;;16.27;32.25;100216.09;5041958;28;20132;-92
2023/01/09 04:22:14;;;;;;;4.47;3.20;;;;;;;16.21;32.27;100204.38;5075414;28;20039;-89
2023/01/09 04:24:40;;;;;;;4.57;3.35;;;;;;;16.29;32.31;100193.22;5075774;28;20443;-90
2023/01/09 04:27:06;;;;;;;4.15;3.10;;;;;;;16.31;32.30;100215.41;5042431;28;20383;-91
2023/01/09 04:29:31;;;;;;;4.55;3.05;;;;;;;16.17;32.29;100196.97;5042201;28;20490;-91
2023/01/09 04:31:57;;;;;;;5.32;3.40;;;;;;;16.34;31.98;100217.63;5042026;28;20021;-92
2023/01/09 04:34:24;;;;;;;5.53;3.40;;;;;;;16.32;32.43;100233.22;5042209;28;20028;-91
2023/01/09 04:36:51;;;;;;;5.90;3.63;;;;;;;16.33;32.51;100207.06;5058907;28;20032;-91
2023/01/09 04:39:17;;;;;;;4.85;3.53;;;;;;;16.36;32.25;100211.22;5058767;28;20360;-91
2023/01/09 04:41:49;;;;;;;5.93;3.38;;;;;;;16.31;32.20;100196.50;5059004;28;20028;-91
2023/01/09 04:44:16;;;;;;;4.93;3.17;;;;;;;16.25;32.45;100173.19;5043502;28;20523;-92
2023/01/09 04:46:42;;;;;;;4.53;2.83;;;;;;;16.26;32.16;100185.59;5042098;28;20028;-92
2023/01/09 04:49:07;;;;;;;3.88;2.83;;;;;;;16.29;32.33;100185.16;5042281;28;20042;-93
2023/01/09 04:51:33;;;;;;;5.28;3.35;;;;;;;16.23;32.44;100175.31;5041943;28;20372;-94
2023/01/09 04:53:59;;;;;;;3.97;2.90;;;;;;;16.29;32.38;100184.34;5058477;28;20048;-93
2023/01/09 04:56:25;;;;;;;4.55;3.08;;;;;;;16.34;32.43;100187.97;5041951;28;20036;-92
2023/01/09 04:58:50;;;;;;;5.15;3.15;;;;;;;16.21;32.30;100176.56;5058395;28;20475;-93
2023/01/09 05:01:16;;;;;;;4.68;3.08;;;;;;;16.27;32.25;100211.53;5058479;28;20100;-91
2023/01/09 05:03:42;;;;;;;4.07;2.67;;;;;;;16.27;32.18;100198.03;5058233;28;20550;-92
2023/01/09 05:06:07;;;;;;;3.45;2.67;;;;;;;16.26;32.61;100209.88;5041373;28;20024;-92
2023/01/09 05:08:33;;;;;;;4.32;2.90;;;;;;;16.27;32.29;100203.44;5058082;28;20029;-93
2023/01/09 05:10:59;;;;;;;3.72;3.10;;;;;;;16.27;32.57;100200.75;5058613;28;20056;-94
2023/01/09 05:13:28;;;;;;;3.40;2.63;;;;;;;16.30;32.59;100213.78;5041481;28;20032;-93
2023/01/09 05:15:53;;;;;;;4.88;3.30;;;;;;;16.28;32.53;100209.63;5041728;28;20031;-94
2023/01/09 05:18:19;;;;;;;4.70;3.25;;;;;;;16.29;32.32;100212.13;5041981;28;20032;-92
2023/01/09 05:20:47;;;;;;;4.22;3.00;;;;;;;16.21;32.35;100198.97;5057364;28;20034;-92
2023/01/09 05:23:13;;;;;;;3.97;2.72;;;;;;;16.15;32.33;100194.50;5057847;28;20454;-94
2023/01/09 05:25:39;;;;;;;3.90;2.78;;;;;;;16.18;32.31;100177.88;5041349;28;20020;-93
2023/01/09 05:28:05;;;;;;;3.90;2.88;;;;;;;16.26;32.48;100184.78;5041330;28;20032;-93
2023/01/09 05:30:30;;;;;;;5.28;2.78;;;;;;;16.29;32.42;100179.75;5057996;28;20096;-92
2023/01/09 05:32:56;;;;;;;4.53;3.00;;;;;;;16.30;32.36;100191.38;5041599;28;20483;-93
2023/01/09 05:35:22;;;;;;;4.68;3.17;;;;;;;16.29;32.40;100184.34;5057855;28;20028;-93
2023/01/09 05:37:47;;;;;;;4.15;2.85;;;;;;;16.30;32.46;100186.00;5041206;28;20089;-93
2023/01/09 05:40:13;;;;;;;4.35;3.10;;;;;;;16.27;32.37;100186.44;5040999;28;20025;-92
2023/01/09 05:42:39;;;;;;;4.35;2.80;;;;;;;16.25;32.23;100183.97;5041359;28;20025;-92
2023/01/09 05:45:05;;;;;;;4.85;3.13;;;;;;;16.25;32.51;100183.97;5041571;28;20072;-92
2023/01/09 05:47:31;;;;;;;4.28;3.05;;;;;;;16.26;32.53;100184.78;5057978;28;20031;-92
2023/01/09 05:49:56;;;;;;;4.95;3.10;;;;;;;16.24;32.44;100184.19;5041280;28;20120;-92
2023/01/09 05:52:23;;;;;;;4.30;3.00;;;;;;;16.23;32.54;100179.84;5041080;28;20505;-92
2023/01/09 05:54:49;;;;;;;3.97;2.75;;;;;;;16.25;32.60;100192.06;5040500;28;20498;-93
2023/01/09 05:57:14;;;;;;;4.70;2.97;;;;;;;16.27;32.46;100191.84;5057411;28;20024;-93
2023/01/09 05:59:40;;;;;;;4.22;2.75;;;;;;;16.30;32.52;100192.19;5041532;28;20445;-93
2023/01/09 06:02:06;;;;;;;4.13;2.75;;;;;;;16.27;32.40;100203.44;5041032;28;20471;-92
2023/01/09 06:04:31;;;;;;;4.03;2.75;;;;;;;16.28;32.33;100191.59;5041339;28;20471;-93
2023/01/09 06:06:57;;;;;;;4.45;3.00;;;;;;;16.21;32.41;100177.41;5041085;28;20024;-91
2023/01/09 06:09:23;;;;;;;4.18;3.00;;;;;;;16.13;32.47;100167.75;5040704;28;20499;-92
2023/01/09 06:11:49;;;;;;;5.30;3.28;;;;;;;16.23;32.43;100188.78;5041573;28;20024;-93
2023/01/09 06:14:15;;;;;;;5.05;3.17;;;;;;;16.19;32.17;100198.34;5041748;28;20367;-93
2023/01/09 06:16:40;;;;;;;4.13;2.92;;;;;;;16.24;32.38;100208.47;5040875;28;20500;-94
2023/01/09 06:19:06;;;;;;;3.63;2.90;;;;;;;16.23;32.46;100207.66;5041566;28;22024;-94
2023/01/09 06:21:32;;;;;;;4.45;3.17;;;;;;;16.21;32.52;100204.38;5056993;28;20485;-93
2023/01/09 06:23:58;;;;;;;5.93;2.80;;;;;;;16.20;32.63;100197.31;5040719;28;20032;-95
2023/01/09 06:26:24;;;;;;;5.60;3.22;;;;;;;16.20;32.24;100191.94;5057134;28;20104;-93
2023/01/09 06:28:50;;;;;;;3.78;2.78;;;;;;;16.19;32.58;100195.66;5040650;28;20024;-93
2023/01/09 06:31:16;;;;;;;4.43;2.78;;;;;;;16.09;32.34;100168.44;5040500;28;20023;-94
2023/01/09 06:33:42;;;;;;;3.58;2.70;;;;;;;15.88;32.51;100146.31;5040470;28;20028;-94
2023/01/09 06:36:08;;;;;;;4.35;2.95;;;;;;;16.17;32.45;100178.91;5041336;28;20028;-93
2023/01/09 06:38:33;;;;;;;4.13;2.83;;;;;;;16.18;32.48;100177.00;5056812;28;20039;-92
2023/01/09 06:40:59;;;;;;;4.15;2.60;;;;;;;16.15;32.67;100181.00;5057508;28;20028;-94
2023/01/09 06:43:25;;;;;;;3.92;2.67;;;;;;;16.20;32.40;100175.75;5057267;28;20505;-93
2023/01/09 06:45:50;;;;;;;3.45;2.63;;;;;;;16.13;32.41;100183.13;5057181;28;20024;-92
2023/01/09 06:48:16;;;;;;;4.03;2.78;;;;;;;16.20;32.38;100181.16;5040412;28;20021;-92
2023/01/09 06:50:42;;;;;;;3.47;2.70;;;;;;;16.20;32.71;100189.22;5057004;28;20115;-90
2023/01/09 06:53:09;;;;;;;4.07;2.53;;;;;;;16.23;33.08;100186.09;5040260;28;20039;-92
2023/01/09 06:55:35;;;;;;;3.95;2.70;;;;;;;16.13;32.60;100183.94;5042404;28;20031;-94
2023/01/09 06:58:01;;;;;;;3.80;2.53;;;;;;;16.03;32.36;100161.28;5040804;28;20024;-94
2023/01/09 07:00:26;;;;;;;4.10;2.70;;;;;;;16.12;32.44;100166.09;5059448;28;20480;-91
2023/01/09 07:02:52;;;;;;;4.18;2.85;;;;;;;16.13;32.17;100180.41;5077902;28;20028;-93
2023/01/09 07:05:18;;;;;;;4.85;2.90;;;;;;;16.17;32.54;100186.19;5060962;28;20029;-94
2023/01/09 07:07:43;;;;;;;3.20;2.63;;;;;;;16.17;32.43;100187.00;5060562;28;20025;-94
2023/01/09 07:10:10;;;;;;;4.43;2.88;;;;;;;16.12;32.47;100162.59;5044285;28;20028;-95
2023/01/09 07:12:35;;;;;;;4.53;3.00;;;;;;;16.17;32.59;100176.22;5045020;28;20029;-95
2023/01/09 07:15:01;;;;;;;3.85;2.83;;;;;;;16.14;32.52;100185.59;5060818;28;20437;-94
2023/01/09 07:17:27;;;;;;;4.47;2.78;;;;;;;16.08;32.55;100170.31;5062232;28;20048;-93
2023/01/09 07:19:53;;;;;;;3.42;2.65;;;;;;;16.16;32.52;100185.38;5043000;28;20080;-92
2023/01/09 07:22:18;;;;;;;5.00;3.00;;;;;;;16.12;32.78;100193.06;5043373;28;20365;-93
2023/01/09 07:24:47;;;;;;;3.22;2.60;;;;;;;16.12;32.77;100192.25;5058649;28;20024;-92
2023/01/09 07:27:12;;;;;;;5.20;2.65;;;;;;;16.17;32.70;100199.66;5059537;28;20383;-94
2023/01/09 07:29:38;;;;;;;4.68;2.67;;;;;;;16.09;32.85;100195.41;5042068;28;20104;-94
2023/01/09 07:32:04;;;;;;;4.25;2.60;;;;;;;16.07;32.56;100184.03;5041708;28;20024;-92
2023/01/09 07:34:30;;;;;;;3.50;2.70;;;;;;;16.08;32.42;100199.97;5059202;28;20059;-93
2023/01/09 07:36:56;;;;;;;3.70;2.42;;;;;;;15.83;32.61;100159.66;5042662;28;20024;-93
2023/01/09 07:39:21;;;;;;;2.65;2.22;;;;;;;16.12;32.83;100206.53;5042972;28;20086;-94
2023/01/09 07:41:47;;;;;;;4.32;2.40;;;;;;;16.15;32.51;100194.50;5041825;28;20077;-92
2023/01/09 07:44:13;;;;;;;2.88;2.17;;;;;;;16.04;32.46;100197.94;5041442;28;20024;-94
2023/01/09 07:46:41;;;;;;;4.10;2.70;;;;;;;16.13;32.44;100213.59;5058854;28;20025;-94
2023/01/09 07:49:07;;;;;;;4.88;2.45;;;;;;;16.03;32.68;100207.09;5059881;28;20139;-93
2023/01/09 07:51:32;;;;;;;3.40;2.45;;;;;;;16.05;32.66;100205.00;5043557;28;20120;-93
2023/01/09 07:53:58;;;;;;;3.47;2.38;;;;;;;16.03;32.82;100191.75;5060770;28;20063;-93
2023/01/09 07:56:24;;;;;;;4.18;2.70;;;;;;;16.11;32.33;100217.56;5043584;28;20046;-93
2023/01/09 07:58:50;;;;;;;4.43;2.60;;;;;;;16.05;32.57;100215.78;5060732;28;20067;-94
2023/01/09 08:01:16;;;;;;;4.47;2.60;;;;;;;16.11;32.67;100231.06;5060359;28;20115;-95
2023/01/09 08:03:41;;;;;;;3.38;2.22;;;;;;;16.09;32.68;100222.34;5060389;28;20020;-94
2023/01/09 08:06:09;;;;;;;4.38;2.65;;;;;;;16.08;32.73;100228.81;5060636;28;20029;-93
2023/01/09 08:08:36;;;;;;;4.38;2.40;;;;;;;16.10;33.02;100235.59;5060631;28;20047;-94
2023/01/09 08:11:01;;;;;;;3.33;2.33;;;;;;;16.00;32.69;100216.44;5060408;28;20108;-93
2023/01/09 08:13:27;;;;;;;4.55;2.97;;;;;;;16.09;32.69;100212.41;5059725;28;20025;-92
2023/01/09 08:15:53;;;;;;;3.78;2.40;;;;;;;16.11;32.47;100226.47;5059691;28;20120;-92
2023/01/09 08:18:19;;;;;;;3.15;2.63;;;;;;;16.13;32.54;100234.34;5042479;28;20021;-92
2023/01/09 08:20:48;;;;;;;3.60;2.40;;;;;;;16.07;32.72;100219.88;5075909;28;20025;-92
2023/01/09 08:23:13;;;;;;;3.20;2.38;;;;;;;15.85;32.91;100191.78;5058909;28;20020;-92
2023/01/09 08:25:41;;;;;;;4.25;2.25;;;;;;;16.03;32.42;100216.00;5042281;28;20017;-91
2023/01/09 08:28:10;;;;;;;3.55;2.28;;;;;;;16.04;32.80;100224.91;5058822;28;20363;-91
2023/01/09 08:30:36;;;;;;;4.13;2.50;;;;;;;16.13;32.85;100237.03;5059209;28;20020;-91
2023/01/09 08:33:02;;;;;;;2.67;2.30;;;;;;;15.98;32.64;100209.66;5042449;28;20035;-93
2023/01/09 08:35:28;;;;;;;2.97;2.03;;;;;;;16.07;32.85;100216.38;5058267;28;20021;-90
2023/01/09 08:37:54;;;;;;;3.35;2.20;;;;;;;16.11;32.68;100225.66;5041595;28;20032;-93
2023/01/09 08:40:24;;;;;;;3.53;2.42;;;;;;;16.00;32.88;100204.84;5058211;28;20028;-92
2023/01/09 08:48:20;;;;;;;3.22;2.13;;;;;;;16.04;32.57;100228.44;5061446;28;20045;-91
2023/01/09 08:50:46;;;;;;;3.28;1.80;;;;;;;16.10;32.78;100226.69;5058596;28;20033;-92
2023/01/09 08:53:12;;;;;;;3.05;2.28;;;;;;;16.09;32.87;100233.13;5041965;28;20135;-92
2023/01/09 08:55:38;;;;;;;2.90;2.28;;;;;;;16.10;32.95;100234.78;5058477;28;20608;-93
2023/01/09 08:58:03;;;;;;;3.40;2.22;;;;;;;16.07;32.81;100222.56;5058645;28;20021;-93
2023/01/09 09:00:29;;;;;;;4.15;2.17;;;;;;;16.12;32.87;100224.59;5058311;28;20115;-91
2023/01/09 09:02:57;;;;;;;3.10;1.95;;;;;;;16.15;32.81;100238.44;5058234;28;20060;-91
2023/01/09 09:05:23;;;;;;;2.80;2.15;;;;;;;16.14;32.82;100241.34;5058399;28;20024;-91
2023/01/09 09:07:50;;;;;;;2.33;1.90;;;;;;;16.13;32.78;100247.81;5041470;28;20063;-91
2023/01/09 09:10:19;;;;;;;2.97;2.25;;;;;;;16.12;32.66;100235.38;5058060;28;20040;-91
2023/01/09 09:12:47;;;;;;;2.53;1.95;;;;;;;16.11;32.79;100228.38;5058262;28;20025;-92
2023/01/09 09:15:15;;;;;;;2.40;2.05;;;;;;;16.16;33.11;100241.97;5058360;28;20424;-92
2023/01/09 09:17:41;;;;;;;3.05;2.00;;;;;;;16.08;32.61;100236.91;5058249;28;20490;-91
2023/01/09 09:20:08;;;;;;;2.38;1.90;;;;;;;16.07;32.96;100230.66;5040950;28;20074;-92
2023/01/09 09:22:34;;;;;;;2.28;2.00;;;;;;;16.04;32.66;100233.00;5040542;28;20381;-92
2023/01/09 09:25:03;;;;;;;2.47;2.00;;;;;;;16.14;32.93;100230.56;5073577;28;20028;-91
2023/01/09 09:27:30;;;;;;;2.70;1.90;;;;;;;16.10;32.62;100234.78;5059167;28;20027;-93
2023/01/09 09:29:59;;;;;;;2.45;1.77;;;;;;;16.08;32.47;100224.22;5058375;28;20028;-93
2023/01/09 09:32:25;;;;;;;4.55;1.90;;;;;;;16.13;33.04;100229.75;5058363;28;20028;-92
2023/01/09 09:34:50;;;;;;;2.33;1.92;;;;;;;16.12;32.78;100230.00;5041243;28;20060;-92
2023/01/09 09:37:16;;;;;;;2.67;1.90;;;;;;;16.14;33.06;100219.78;5058255;28;20057;-92
2023/01/09 09:39:42;;;;;;;2.33;1.90;;;;;;;16.09;32.75;100214.25;5041272;28;20032;-91
2023/01/09 09:46:04;;;;;;;2.53;1.70;;;;;;;16.16;32.72;100228.50;5076013;28;20540;-92
2023/01/09 09:48:43;;;;;;;3.13;2.22;;;;;;;16.11;32.92;100210.31;5058520;28;20102;-91
2023/01/09 09:51:33;;;;;;;2.47;1.88;;;;;;;16.20;32.91;100215.38;5059255;28;20029;-91
2023/01/09 09:54:18;;;;;;;3.47;1.88;;;;;;;16.17;32.80;100208.56;5056978;28;20136;-92
2023/01/09 09:56:56;;;;;;;3.17;1.83;;;;;;;16.18;32.69;100214.75;5041533;28;20032;-91
2023/01/09 09:59:23;;;;;;;2.75;1.92;;;;;;;16.18;32.97;100207.53;5041140;28;20498;-91
2023/01/09 10:01:56;;;;;;;2.88;1.95;;;;;;;16.11;32.86;100210.31;5058059;28;20028;-93
2023/01/09 10:04:25;;;;;;;2.10;1.83;;;;;;;16.08;32.85;100202.66;5041470;28;20097;-92
2023/01/09 10:06:54;;;;;;;2.40;1.80;;;;;;;16.16;32.79;100198.84;5058360;28;20028;-92
2023/01/09 10:09:53;;;;;;;2.20;1.80;;;;;;;16.23;32.84;100223.00;5041872;28;20030;-92
2023/01/09 10:12:42;;;;;;;2.13;1.83;;;;;;;16.24;32.88;100219.25;5074865;28;20424;-92
2023/01/09 10:15:16;;;;;;;1.65;1.55;;;;;;;16.21;32.95;100209.75;5074654;28;20031;-92
2023/01/09 10:18:00;;;;;;;3.20;1.65;;;;;;;16.20;32.75;100213.50;5057533;28;20031;-92
2023/01/09 10:20:49;;;;;;;2.25;1.80;;;;;;;16.25;33.01;100215.53;5073648;28;20479;-92
2023/01/09 10:23:50;;;;;;;2.15;1.52;;;;;;;16.23;32.99;100215.75;5074909;28;20056;-91
2023/01/09 10:26:40;;;;;;;2.03;1.75;;;;;;;16.22;32.94;100216.78;5057012;28;20459;-93
2023/01/09 10:29:25;;;;;;;2.35;1.67;;;;;;;16.14;33.02;100209.00;5072024;28;20044;-92
2023/01/09 10:32:03;;;;;;;3.30;2.08;;;;;;;15.94;32.79;100161.59;5073925;28;20036;-92
2023/01/09 10:34:53;;;;;;;2.40;1.67;;;;;;;16.18;32.86;100202.13;5073672;28;20056;-91
2023/01/09 10:37:24;;;;;;;2.05;1.60;;;;;;;16.10;32.64;100194.34;5060608;28;20111;-91
2023/01/09 10:40:02;;;;;;;2.22;1.90;;;;;;;16.21;33.11;100201.69;5044194;28;20395;-91
2023/01/09 10:42:32;;;;;;;2.53;1.80;;;;;;;16.22;32.94;100206.00;5044390;28;20483;-92
2023/01/09 10:45:19;;;;;;;2.70;1.80;;;;;;;16.24;32.91;100193.09;5044435;28;20032;-91
2023/01/09 10:47:45;;;;;;;2.55;1.85;;;;;;;16.24;33.09;100189.59;5077418;28;20032;-91
2023/01/09 10:50:25;;;;;;;2.72;1.90;;;;;;;16.22;33.04;100181.72;5046280;28;20021;-91
2023/01/09 10:52:53;;;;;;;1.90;1.63;;;;;;;16.23;32.95;100175.31;5060937;28;20033;-91
2023/01/09 10:55:31;;;;;;;2.10;1.50;;;;;;;16.24;32.92;100174.22;5061164;28;20021;-92
2023/01/09 10:58:18;;;;;;;2.30;1.73;;;;;;;16.29;32.91;100179.75;5061933;28;20040;-91
2023/01/09 11:00:49;;;;;;;2.65;1.70;;;;;;;16.22;32.97;100172.81;5077418;28;20039;-92
2023/01/09 11:03:17;;;;;;;2.15;1.60;;;;;;;16.20;32.89;100164.97;5044235;28;20054;-92
2023/01/09 11:05:43;;;;;;;2.22;1.58;;;;;;;16.23;32.79;100172.59;5060502;28;20056;-92
2023/01/09 11:08:10;;;;;;;2.08;1.63;;;;;;;16.28;32.62;100174.59;5043998;28;20465;-91
2023/01/09 11:10:49;;;;;;;1.95;1.55;;;;;;;16.25;33.17;100167.78;5076521;28;20162;-92
2023/01/09 11:13:22;;;;;;;2.15;1.70;;;;;;;16.25;32.70;100165.09;5060115;28;20078;-91
2023/01/09 11:15:58;;;;;;;2.47;1.85;;;;;;;16.27;32.83;100172.97;5060006;28;20056;-91
2023/01/09 11:18:24;;;;;;;1.70;1.50;;;;;;;16.25;32.68;100164.28;5060014;28;20028;-91
2023/01/09 11:20:50;;;;;;;1.63;1.48;;;;;;;16.26;33.07;100163.22;5060401;28;20033;-91
2023/01/09 11:23:27;;;;;;;2.83;1.60;;;;;;;16.23;32.89;100169.91;5044443;28;20032;-92
2023/01/09 11:25:53;;;;;;;2.33;1.60;;;;;;;16.22;32.98;100159.34;5043863;28;20027;-92
2023/01/09 11:28:19;;;;;;;2.22;1.60;;;;;;;16.21;32.96;100155.00;5060098;28;20101;-92
2023/01/09 11:30:56;;;;;;;2.22;1.42;;;;;;;16.27;32.91;100160.28;5043570;28;20036;-93
2023/01/09 11:33:23;;;;;;;2.45;1.75;;;;;;;16.21;32.73;100153.13;5060500;28;20029;-93
2023/01/09 11:35:59;;;;;;;2.22;1.77;;;;;;;16.29;32.96;100160.88;5043414;28;20055;-93
2023/01/09 11:38:25;;;;;;;2.15;1.65;;;;;;;16.30;32.99;100162.53;5076581;28;20063;-92
2023/01/09 11:40:52;;;;;;;1.65;1.30;;;;;;;16.25;32.98;100146.22;5043307;28;20033;-92
2023/01/09 11:43:32;;;;;;;1.90;1.33;;;;;;;16.29;32.83;100150.09;5043087;28;20510;-91
2023/01/09 11:46:00;;;;;;;2.33;1.70;;;;;;;16.17;32.95;100143.84;5044503;28;20417;-92
2023/01/09 11:48:28;;;;;;;2.17;1.40;;;;;;;16.26;32.78;100158.63;5042578;28;20017;-92
2023/01/09 11:50:56;;;;;;;2.05;1.50;;;;;;;16.25;32.91;100167.78;5060009;28;20058;-93